Time;durP1;ratioP1;P1;durP2;ratioP2;P2;SDS_P1;SDS_P2;PMS_P1;PMS_P2;Temp;Humidity;BMP_temperature;BMP_pressure;BME280_temperature;BME280_humidity;BME280_pressure;Samples;Min_cycle;Max_cycle;Signal;HPM_P1;HPM_P2
2022/12/19 00:00:43;;;;;;;29.43;20.43;;;-4.50;67.80;;;;;;5015891;28;20450;-52
2022/12/19 00:03:10;;;;;;;33.47;20.40;;;-4.50;72.10;;;;;;5012246;28;20491;-52
2022/12/19 00:05:37;;;;;;;31.50;21.37;;;-4.50;69.30;;;;;;5012053;28;20523;-53
2022/12/19 00:08:04;;;;;;;33.97;21.40;;;-4.50;69.10;;;;;;5013027;28;20480;-52
2022/12/19 00:10:32;;;;;;;32.97;21.27;;;-4.50;68.20;;;;;;5012099;28;20502;-52
2022/12/19 00:12:59;;;;;;;33.60;21.57;;;-4.50;68.10;;;;;;5012970;28;20475;-53
2022/12/19 00:15:25;;;;;;;36.60;22.57;;;-4.50;67.20;;;;;;5012400;28;21023;-52
2022/12/19 00:17:52;;;;;;;31.33;19.80;;;-4.50;67.60;;;;;;5012924;28;20475;-52
2022/12/19 00:20:18;;;;;;;37.03;18.00;;;-4.50;67.90;;;;;;5011304;28;20522;-52
2022/12/19 00:22:45;;;;;;;31.30;20.33;;;-4.50;66.50;;;;;;5012639;28;20989;-52
2022/12/19 00:25:11;;;;;;;31.27;19.23;;;-4.50;64.70;;;;;;5011585;28;20515;-52
2022/12/19 00:27:39;;;;;;;30.30;19.67;;;-4.50;62.70;;;;;;5012674;28;20515;-53
2022/12/19 00:30:07;;;;;;;36.07;20.80;;;-4.40;67.50;;;;;;5013267;28;20510;-53
2022/12/19 00:32:33;;;;;;;32.57;19.67;;;-4.40;69.00;;;;;;5012808;28;20542;-52
2022/12/19 00:35:00;;;;;;;32.83;19.80;;;-4.40;72.80;;;;;;5011672;28;20527;-51
2022/12/19 00:37:27;;;;;;;28.97;18.03;;;-4.40;70.30;;;;;;5012540;28;20973;-52
2022/12/19 00:39:54;;;;;;;28.17;18.00;;;-4.40;71.90;;;;;;5011750;28;21039;-53
2022/12/19 00:42:20;;;;;;;27.90;17.40;;;-4.40;77.40;;;;;;5012455;28;20486;-53
2022/12/19 00:44:48;;;;;;;31.53;19.43;;;-4.30;78.40;;;;;;5012258;28;20512;-53
2022/12/19 00:47:15;;;;;;;27.47;18.83;;;-4.30;78.60;;;;;;5012340;28;20571;-52
2022/12/19 00:49:41;;;;;;;31.80;20.23;;;-4.30;77.40;;;;;;5012514;28;20981;-52
2022/12/19 00:52:08;;;;;;;32.33;19.67;;;-4.30;78.40;;;;;;5011948;28;21004;-52
2022/12/19 00:54:34;;;;;;;28.90;19.37;;;-4.30;77.30;;;;;;4996869;28;20575;-51
2022/12/19 00:57:01;;;;;;;32.33;19.13;;;-4.20;78.90;;;;;;5011722;28;20460;-51
2022/12/19 00:59:28;;;;;;;28.90;19.40;;;-4.20;81.70;;;;;;5012376;28;20502;-51
2022/12/19 01:01:55;;;;;;;28.80;17.53;;;-4.20;78.40;;;;;;5012393;28;20502;-52
2022/12/19 01:04:22;;;;;;;27.87;19.17;;;-4.20;78.20;;;;;;5012158;28;20479;-51
2022/12/19 01:06:50;;;;;;;27.13;18.93;;;-4.20;80.00;;;;;;5011549;28;20463;-51
2022/12/19 01:09:16;;;;;;;27.43;17.07;;;-4.10;81.90;;;;;;5012051;28;20447;-51
2022/12/19 01:14:27;;;;;;;26.20;17.63;;;-4.10;82.30;;;;;;5011845;28;20469;-51
2022/12/19 01:16:53;;;;;;;24.10;17.37;;;-4.10;85.70;;;;;;5011587;28;20503;-51
2022/12/19 01:19:21;;;;;;;27.17;17.63;;;-4.10;87.80;;;;;;5012399;28;20471;-51
2022/12/19 01:21:48;;;;;;;27.90;17.63;;;-4.10;90.40;;;;;;5012755;28;20444;-51
2022/12/19 01:24:14;;;;;;;28.03;17.70;;;-4.10;89.40;;;;;;5012023;28;20548;-51
2022/12/19 01:26:41;;;;;;;29.53;18.70;;;-4.10;89.00;;;;;;5013592;28;20487;-52
2022/12/19 01:29:07;;;;;;;27.93;17.07;;;-4.10;87.70;;;;;;5011640;28;20566;-51
2022/12/19 01:31:34;;;;;;;28.77;18.87;;;-4.10;90.10;;;;;;5012015;28;20526;-51
2022/12/19 01:34:00;;;;;;;29.17;17.57;;;-4.10;88.90;;;;;;5011638;28;20475;-52
2022/12/19 01:36:28;;;;;;;30.83;19.50;;;-4.00;91.10;;;;;;5011950;28;20487;-51
2022/12/19 01:38:55;;;;;;;28.27;17.87;;;-4.00;93.20;;;;;;5012117;28;20459;-50
2022/12/19 01:41:22;;;;;;;26.13;17.30;;;-4.00;92.90;;;;;;5015443;28;20455;-51
2022/12/19 01:43:58;;;;;;;25.20;16.43;;;-4.00;95.00;;;;;;5015256;28;20482;-56
2022/12/19 01:46:28;;;;;;;28.17;18.20;;;-4.00;94.30;;;;;;5015810;28;20447;-52
2022/12/19 01:48:55;;;;;;;28.07;16.83;;;-4.00;90.80;;;;;;5015842;28;20953;-55
2022/12/19 01:51:24;;;;;;;20.80;14.50;;;-4.00;91.60;;;;;;5015529;28;20471;-54
2022/12/19 01:53:57;;;;;;;29.73;18.40;;;-4.00;94.30;;;;;;5014486;28;20448;-55
2022/12/19 01:56:27;;;;;;;28.33;16.83;;;-4.00;97.20;;;;;;5013686;28;20502;-55
2022/12/19 01:58:56;;;;;;;23.80;16.70;;;-3.90;99.90;;;;;;5015356;28;20943;-55
2022/12/19 02:01:24;;;;;;;26.90;17.83;;;-3.90;99.90;;;;;;5015302;28;20471;-55
2022/12/19 02:03:52;;;;;;;23.57;16.33;;;-3.90;99.90;;;;;;5014968;28;21181;-56
2022/12/19 02:06:19;;;;;;;28.33;17.00;;;-3.90;99.90;;;;;;5015150;28;20447;-55
2022/12/19 02:08:48;;;;;;;27.00;17.37;;;-3.90;99.90;;;;;;5014457;28;20557;-55
2022/12/19 02:11:16;;;;;;;28.63;16.60;;;-4.00;99.90;;;;;;5015159;28;20514;-55
2022/12/19 02:13:43;;;;;;;24.83;16.77;;;-4.00;99.90;;;;;;5014974;28;20447;-54
2022/12/19 02:16:19;;;;;;;25.03;15.73;;;-4.00;98.20;;;;;;5014927;28;20491;-54
2022/12/19 02:18:54;;;;;;;29.10;17.13;;;-4.00;98.30;;;;;;5015035;28;20475;-55
2022/12/19 02:21:32;;;;;;;29.17;17.07;;;-4.00;99.20;;;;;;5014846;28;20475;-54
2022/12/19 02:24:29;;;;;;;25.00;16.20;;;-3.90;99.90;;;;;;5013818;28;20495;-55
2022/12/19 02:27:17;;;;;;;25.13;16.27;;;-4.00;99.90;;;;;;5009711;28;20531;-54
2022/12/19 02:30:07;;;;;;;25.77;17.17;;;-4.00;99.90;;;;;;5014643;28;20467;-55
2022/12/19 02:32:47;;;;;;;24.10;15.33;;;-4.00;99.90;;;;;;5015261;28;20452;-55
2022/12/19 02:35:23;;;;;;;28.90;17.20;;;-4.10;99.90;;;;;;5014214;28;20583;-55
2022/12/19 02:37:56;;;;;;;23.07;16.80;;;-4.10;99.40;;;;;;5013596;28;20479;-55
2022/12/19 02:40:27;;;;;;;24.37;17.40;;;-4.10;99.60;;;;;;5014287;28;20958;-55
2022/12/19 02:42:58;;;;;;;28.20;16.73;;;-4.10;99.90;;;;;;5014661;28;20480;-55
2022/12/19 02:45:27;;;;;;;29.93;18.80;;;-4.10;99.90;;;;;;5014249;28;20543;-55
2022/12/19 02:47:55;;;;;;;22.17;15.77;;;-4.00;99.90;;;;;;5014843;28;20511;-55
2022/12/19 02:50:22;;;;;;;25.30;16.97;;;-4.10;99.90;;;;;;5012962;28;20881;-54
2022/12/19 02:52:49;;;;;;;27.23;16.87;;;-4.10;99.90;;;;;;5014424;28;20935;-55
2022/12/19 02:55:21;;;;;;;29.00;18.50;;;-4.10;99.90;;;;;;5012637;28;20908;-55
2022/12/19 02:58:00;;;;;;;34.93;18.00;;;-4.10;99.90;;;;;;5013254;28;20567;-55
2022/12/19 03:00:28;;;;;;;25.27;17.07;;;-4.10;99.90;;;;;;5014219;28;20530;-56
2022/12/19 03:03:05;;;;;;;28.60;18.47;;;-4.10;99.90;;;;;;5014262;28;20447;-55
2022/12/19 03:05:40;;;;;;;24.43;16.90;;;-4.10;99.90;;;;;;5013890;28;20554;-55
2022/12/19 03:08:13;;;;;;;26.70;17.50;;;-4.10;99.90;;;;;;5014014;28;20479;-55
2022/12/19 03:10:42;;;;;;;29.23;18.27;;;-4.10;99.90;;;;;;5014035;28;20494;-54
2022/12/19 03:13:14;;;;;;;27.77;19.33;;;-4.10;99.90;;;;;;5014082;28;20531;-56
2022/12/19 03:15:41;;;;;;;35.23;19.57;;;-4.10;99.90;;;;;;5013610;28;20555;-55
2022/12/19 03:18:10;;;;;;;27.90;19.47;;;-4.20;99.90;;;;;;5013882;28;20475;-55
2022/12/19 03:20:44;;;;;;;26.70;18.13;;;-4.20;99.90;;;;;;5011503;28;20909;-56
2022/12/19 03:23:12;;;;;;;30.43;19.30;;;-4.20;99.90;;;;;;5010198;28;20459;-54
2022/12/19 03:25:40;;;;;;;27.57;17.87;;;-4.10;99.90;;;;;;5013566;28;20498;-55
2022/12/19 03:28:12;;;;;;;27.70;18.43;;;-4.10;99.90;;;;;;5013687;28;20579;-55
2022/12/19 03:30:42;;;;;;;27.20;17.63;;;-4.10;99.90;;;;;;5013046;28;20518;-51
2022/12/19 03:33:11;;;;;;;26.30;18.53;;;-4.10;99.90;;;;;;5013497;28;20532;-51
2022/12/19 03:35:40;;;;;;;28.13;17.53;;;-4.10;99.90;;;;;;5012772;28;20622;-51
2022/12/19 03:38:09;;;;;;;30.53;19.47;;;-4.10;99.90;;;;;;5010251;28;20534;-50
2022/12/19 03:40:39;;;;;;;28.47;17.70;;;-4.10;99.90;;;;;;5013750;28;20534;-51
2022/12/19 03:43:10;;;;;;;27.03;17.33;;;-4.10;99.90;;;;;;5012786;28;20539;-51
2022/12/19 03:45:45;;;;;;;29.47;19.37;;;-4.10;99.90;;;;;;5013143;28;20795;-51
2022/12/19 03:48:16;;;;;;;30.20;18.33;;;-4.00;99.90;;;;;;5013568;28;20498;-51
2022/12/19 03:50:48;;;;;;;32.60;18.93;;;-4.00;99.90;;;;;;5012889;28;20534;-51
2022/12/19 03:53:24;;;;;;;28.20;17.87;;;-4.00;99.90;;;;;;5011872;28;20563;-52
2022/12/19 03:55:57;;;;;;;29.17;18.87;;;-3.90;99.90;;;;;;5012919;28;21040;-51
2022/12/19 03:58:30;;;;;;;31.60;18.50;;;-3.90;99.90;;;;;;5012962;28;20629;-51
2022/12/19 04:00:57;;;;;;;32.90;18.10;;;-3.80;99.90;;;;;;5013299;28;20460;-55
2022/12/19 04:03:26;;;;;;;26.40;18.13;;;-3.80;99.90;;;;;;5013014;28;20522;-56
2022/12/19 04:05:55;;;;;;;30.27;19.57;;;-3.70;99.90;;;;;;5012978;28;20562;-55
2022/12/19 04:08:22;;;;;;;30.67;18.83;;;-3.70;99.90;;;;;;5015741;28;20522;-55
2022/12/19 04:10:53;;;;;;;28.20;18.30;;;-3.70;99.90;;;;;;5016885;28;20455;-55
2022/12/19 04:13:23;;;;;;;32.00;18.93;;;-3.70;99.90;;;;;;5014481;28;20828;-52
2022/12/19 04:15:53;;;;;;;30.80;20.33;;;-3.60;99.90;;;;;;5017123;28;20922;-52
2022/12/19 04:18:20;;;;;;;28.70;19.37;;;-3.60;99.90;;;;;;5016666;28;21017;-52
2022/12/19 04:20:54;;;;;;;28.47;19.77;;;-3.60;99.90;;;;;;5015317;28;20487;-51
2022/12/19 04:23:24;;;;;;;27.57;19.20;;;-3.60;99.90;;;;;;5019282;28;20488;-52
2022/12/19 04:25:57;;;;;;;46.87;20.60;;;-3.50;99.90;;;;;;5023704;28;20491;-52
2022/12/19 04:28:31;;;;;;;28.30;19.20;;;-3.50;99.90;;;;;;5019852;28;20507;-52
2022/12/19 04:30:59;;;;;;;32.10;20.03;;;-3.40;99.90;;;;;;5022025;28;20471;-53
2022/12/19 04:33:25;;;;;;;28.20;19.97;;;-3.40;99.90;;;;;;5017541;28;20479;-51
2022/12/19 04:35:54;;;;;;;29.57;20.03;;;-3.40;99.90;;;;;;5013588;28;20651;-51
2022/12/19 04:38:20;;;;;;;34.23;21.80;;;-3.30;99.90;;;;;;5014168;28;20510;-51
2022/12/19 04:40:47;;;;;;;30.97;22.33;;;-3.30;99.90;;;;;;5013696;28;20458;-50
2022/12/19 04:43:14;;;;;;;32.77;20.90;;;-3.30;99.90;;;;;;5012842;28;20502;-49
2022/12/19 04:45:41;;;;;;;34.07;20.97;;;-3.30;99.90;;;;;;5012729;28;20552;-52
2022/12/19 04:48:08;;;;;;;33.80;21.40;;;-3.20;99.90;;;;;;5012120;28;20471;-51
2022/12/19 04:50:35;;;;;;;53.70;39.70;;;-3.30;99.90;;;;;;5012107;28;20499;-51
2022/12/19 04:53:03;;;;;;;41.47;27.60;;;-3.30;99.90;;;;;;5012495;28;21025;-51
2022/12/19 04:55:29;;;;;;;43.47;24.87;;;-3.20;99.90;;;;;;5012172;28;20554;-51
2022/12/19 04:57:56;;;;;;;40.87;23.17;;;-3.20;99.90;;;;;;5012288;28;20535;-52
2022/12/19 05:00:22;;;;;;;31.47;21.23;;;-3.20;99.90;;;;;;5012320;28;20447;-51
2022/12/19 05:02:49;;;;;;;39.90;25.73;;;-3.20;99.90;;;;;;5011605;28;20551;-51
2022/12/19 05:05:16;;;;;;;39.30;26.03;;;-3.20;99.90;;;;;;5010738;28;21064;-51
2022/12/19 05:07:43;;;;;;;32.10;22.30;;;-3.10;99.90;;;;;;5012478;28;20762;-51
2022/12/19 05:10:11;;;;;;;28.27;19.93;;;-3.20;99.90;;;;;;5012369;28;20515;-51
2022/12/19 05:12:37;;;;;;;30.40;20.27;;;-3.20;99.90;;;;;;5012498;28;20542;-51
2022/12/19 05:15:05;;;;;;;49.70;39.43;;;-3.20;99.90;;;;;;5015051;28;20576;-51
2022/12/19 05:17:32;;;;;;;32.73;23.93;;;-3.20;99.90;;;;;;5015659;28;20467;-52
2022/12/19 05:19:58;;;;;;;31.53;22.70;;;-3.20;99.90;;;;;;5016270;28;20531;-51
2022/12/19 05:22:27;;;;;;;38.00;21.57;;;-3.30;99.90;;;;;;5015963;28;21012;-51
2022/12/19 05:24:54;;;;;;;28.70;20.13;;;-3.20;99.90;;;;;;5015787;28;20567;-52
2022/12/19 05:27:22;;;;;;;32.60;21.33;;;-3.20;99.90;;;;;;5016395;28;20538;-51
2022/12/19 05:29:48;;;;;;;30.90;20.20;;;-3.20;99.90;;;;;;5015657;28;20531;-51
2022/12/19 05:32:15;;;;;;;32.47;21.17;;;-3.20;99.90;;;;;;5016175;28;20539;-51
2022/12/19 05:34:41;;;;;;;31.37;20.77;;;-3.20;99.90;;;;;;5014796;28;20594;-52
2022/12/19 05:37:08;;;;;;;35.63;21.50;;;-3.20;99.90;;;;;;5016048;28;20526;-51
2022/12/19 05:39:34;;;;;;;30.50;21.30;;;-3.20;99.90;;;;;;5016233;28;20534;-51
2022/12/19 05:42:01;;;;;;;32.53;20.80;;;-3.20;99.90;;;;;;5025431;28;20479;-52
2022/12/19 05:44:29;;;;;;;34.37;21.40;;;-3.20;99.90;;;;;;5028174;28;20487;-51
2022/12/19 05:46:55;;;;;;;28.43;19.07;;;-3.20;99.90;;;;;;5029491;28;20475;-52
2022/12/19 05:49:22;;;;;;;31.70;20.77;;;-3.20;99.90;;;;;;5028041;28;20515;-54
2022/12/19 05:51:48;;;;;;;32.73;20.90;;;-3.10;99.90;;;;;;5016519;28;20515;-52
2022/12/19 05:54:15;;;;;;;32.73;20.90;;;-3.10;99.90;;;;;;5015251;28;20555;-53
2022/12/19 05:56:41;;;;;;;34.37;20.97;;;-3.10;99.90;;;;;;5014655;28;20881;-53
2022/12/19 05:59:08;;;;;;;30.00;21.00;;;-3.10;99.90;;;;;;5015238;28;20534;-52
2022/12/19 06:01:35;;;;;;;31.20;21.37;;;-3.00;99.90;;;;;;5015360;28;20536;-52
2022/12/19 06:04:02;;;;;;;29.10;20.07;;;-3.10;99.90;;;;;;5014276;28;20494;-54
2022/12/19 06:06:29;;;;;;;33.13;21.23;;;-3.00;99.90;;;;;;5015209;28;20993;-53
2022/12/19 06:08:57;;;;;;;30.53;20.90;;;-3.00;99.90;;;;;;5015119;28;20567;-51
2022/12/19 06:11:24;;;;;;;28.77;20.20;;;-3.00;99.90;;;;;;5015119;28;20542;-52
2022/12/19 06:13:51;;;;;;;34.90;20.30;;;-3.00;99.90;;;;;;5015457;28;20543;-52
2022/12/19 06:16:19;;;;;;;32.17;21.40;;;-3.00;99.90;;;;;;5015125;28;21041;-52
2022/12/19 06:18:47;;;;;;;30.60;20.87;;;-2.90;99.90;;;;;;5015032;28;20880;-51
2022/12/19 06:21:16;;;;;;;29.73;20.00;;;-2.90;99.90;;;;;;5014886;28;20543;-52
2022/12/19 06:23:43;;;;;;;31.33;21.20;;;-2.90;99.90;;;;;;5014527;28;20538;-51
2022/12/19 06:26:12;;;;;;;30.13;20.83;;;-2.80;99.90;;;;;;5013599;28;20511;-51
2022/12/19 06:28:39;;;;;;;32.47;20.80;;;-2.80;99.90;;;;;;5014567;28;20550;-51
2022/12/19 06:31:07;;;;;;;29.97;19.50;;;-2.80;99.90;;;;;;5015026;28;20569;-52
2022/12/19 06:33:34;;;;;;;31.47;19.60;;;-2.80;99.90;;;;;;5014044;28;20488;-52
2022/12/19 06:36:04;;;;;;;33.03;21.10;;;-2.70;99.90;;;;;;5014237;28;20641;-52
2022/12/19 06:38:31;;;;;;;27.90;19.40;;;-2.70;99.90;;;;;;5014635;28;20526;-52
2022/12/19 06:43:41;;;;;;;32.33;21.20;;;-2.60;99.90;;;;;;5014396;28;20559;-53
2022/12/19 06:46:08;;;;;;;34.17;19.10;;;-2.60;99.90;;;;;;5014391;28;20547;-53
2022/12/19 06:48:35;;;;;;;34.77;21.50;;;-2.60;99.90;;;;;;5013278;28;21040;-52
2022/12/19 06:51:03;;;;;;;41.60;20.43;;;-2.50;99.90;;;;;;5014333;28;20534;-52
2022/12/19 06:53:30;;;;;;;30.50;20.47;;;-2.50;99.90;;;;;;5014176;28;20488;-51
2022/12/19 06:55:58;;;;;;;31.57;20.83;;;-2.50;99.90;;;;;;5014207;28;21044;-52
2022/12/19 06:58:25;;;;;;;29.43;18.80;;;-2.50;99.90;;;;;;5014496;28;20444;-52
2022/12/19 07:00:53;;;;;;;26.67;19.10;;;-2.50;99.90;;;;;;5014340;28;20535;-52
2022/12/19 07:03:24;;;;;;;31.73;20.60;;;-2.40;99.90;;;;;;5013098;28;20538;-52
2022/12/19 07:05:50;;;;;;;27.67;18.10;;;-2.40;99.90;;;;;;5013759;28;20927;-51
2022/12/19 07:08:18;;;;;;;32.47;20.50;;;-2.30;99.90;;;;;;5014169;28;20534;-51
2022/12/19 07:10:45;;;;;;;28.03;18.83;;;-2.30;99.90;;;;;;5014100;28;20586;-52
2022/12/19 07:13:11;;;;;;;30.80;19.00;;;-2.30;99.90;;;;;;5014183;28;20535;-52
2022/12/19 07:15:38;;;;;;;30.50;20.27;;;-2.30;99.90;;;;;;5012898;28;20993;-52
2022/12/19 07:18:08;;;;;;;28.67;18.13;;;-2.20;99.90;;;;;;5012925;28;20976;-52
2022/12/19 07:20:36;;;;;;;35.17;19.60;;;-2.20;99.90;;;;;;5011485;28;20992;-51
2022/12/19 07:23:04;;;;;;;28.60;19.10;;;-2.20;99.90;;;;;;5013857;28;20490;-53
2022/12/19 07:25:32;;;;;;;25.20;16.80;;;-2.20;99.90;;;;;;5013500;28;20476;-52
2022/12/19 07:27:59;;;;;;;24.53;17.47;;;-2.20;99.90;;;;;;5013772;28;20535;-51
2022/12/19 07:30:25;;;;;;;25.63;17.90;;;-2.10;99.90;;;;;;5011694;28;21116;-51
2022/12/19 07:32:52;;;;;;;23.27;16.40;;;-2.10;99.90;;;;;;5013659;28;20530;-50
2022/12/19 07:35:21;;;;;;;29.90;19.47;;;-2.10;99.90;;;;;;5012107;28;20586;-51
2022/12/19 07:37:48;;;;;;;29.17;18.53;;;-2.00;99.90;;;;;;5012867;28;20459;-51
2022/12/19 07:40:15;;;;;;;26.77;18.03;;;-2.00;99.90;;;;;;5013521;28;20527;-50
2022/12/19 07:42:43;;;;;;;27.97;17.83;;;-1.90;99.90;;;;;;5012782;28;21270;-51
2022/12/19 07:45:10;;;;;;;29.40;18.53;;;-1.90;99.90;;;;;;5012361;28;20566;-51
2022/12/19 07:47:37;;;;;;;26.50;17.47;;;-1.90;99.90;;;;;;5013060;28;20852;-51
2022/12/19 07:50:05;;;;;;;24.47;17.00;;;-1.80;99.90;;;;;;5013747;28;20917;-51
2022/12/19 07:52:31;;;;;;;29.67;18.40;;;-1.80;99.90;;;;;;5013029;28;20893;-52
2022/12/19 07:54:58;;;;;;;26.40;17.93;;;-1.80;99.90;;;;;;5013322;28;20558;-51
2022/12/19 07:57:24;;;;;;;26.27;17.70;;;-1.70;99.90;;;;;;5013598;28;20448;-52
2022/12/19 07:59:52;;;;;;;31.73;20.07;;;-1.70;99.90;;;;;;5012442;28;20551;-51
2022/12/19 08:02:19;;;;;;;26.13;17.30;;;-1.70;99.90;;;;;;5011811;28;20435;-54
2022/12/19 08:04:45;;;;;;;27.43;18.40;;;-1.70;99.90;;;;;;5011410;28;20303;-53
2022/12/19 08:07:12;;;;;;;25.47;18.20;;;-1.60;99.90;;;;;;5012895;28;20526;-53
2022/12/19 08:09:38;;;;;;;28.53;17.30;;;-1.60;99.90;;;;;;5012788;28;20583;-52
2022/12/19 08:12:05;;;;;;;26.83;17.60;;;-1.50;99.90;;;;;;5013176;28;20539;-53
2022/12/19 08:14:32;;;;;;;28.40;17.53;;;-1.50;99.90;;;;;;5011907;28;20515;-53
2022/12/19 08:16:59;;;;;;;25.30;17.97;;;-1.50;99.90;;;;;;5011213;28;21048;-53
2022/12/19 08:19:26;;;;;;;28.10;19.70;;;-1.40;99.90;;;;;;5011902;28;20551;-53
2022/12/19 08:21:52;;;;;;;28.30;17.27;;;-1.50;99.90;;;;;;5012649;28;20538;-53
2022/12/19 08:24:19;;;;;;;30.80;19.50;;;-1.40;99.90;;;;;;5012427;28;20543;-53
2022/12/19 08:26:45;;;;;;;26.50;16.33;;;-1.40;99.90;;;;;;5012656;28;20538;-53
2022/12/19 08:29:12;;;;;;;24.60;17.03;;;-1.30;99.90;;;;;;5011975;28;20530;-53
2022/12/19 08:31:39;;;;;;;27.00;17.23;;;-1.30;99.90;;;;;;5012470;28;20535;-52
2022/12/19 08:34:07;;;;;;;24.63;15.90;;;-1.20;99.90;;;;;;5011528;28;20531;-52
2022/12/19 08:36:33;;;;;;;31.80;17.83;;;-1.20;99.90;;;;;;5012263;28;20550;-53
2022/12/19 08:39:00;;;;;;;28.80;17.20;;;-1.20;99.90;;;;;;5012407;28;20467;-52
2022/12/19 08:41:26;;;;;;;25.90;16.97;;;-1.20;99.90;;;;;;5012356;28;20519;-53
2022/12/19 08:43:54;;;;;;;24.43;16.20;;;-1.10;94.80;;;;;;5013930;28;21060;-54
2022/12/19 08:46:21;;;;;;;24.03;16.57;;;-1.10;78.50;;;;;;5023933;28;20926;-53
2022/12/19 08:48:47;;;;;;;23.50;16.40;;;-1.10;76.40;;;;;;5024781;28;20467;-54
2022/12/19 08:51:16;;;;;;;27.80;17.50;;;-1.10;81.50;;;;;;5025336;28;20503;-54
2022/12/19 08:53:45;;;;;;;24.30;16.77;;;-1.00;80.70;;;;;;5020758;28;20471;-53
2022/12/19 08:56:13;;;;;;;35.60;16.03;;;-1.00;20.40;;;;;;5013119;28;20476;-53
2022/12/19 08:58:40;;;;;;;29.23;16.67;;;-1.00;75.50;;;;;;5012161;28;20530;-51
2022/12/19 09:01:12;;;;;;;28.83;18.37;;;-1.00;22.70;;;;;;5012138;28;21020;-51
2022/12/19 09:03:38;;;;;;;26.83;17.43;;;-0.90;20.50;;;;;;5011591;28;20538;-50
2022/12/19 09:06:08;;;;;;;25.70;16.97;;;-0.90;99.90;;;;;;5011053;28;20572;-51
2022/12/19 09:08:37;;;;;;;25.17;16.73;;;-0.80;23.80;;;;;;5012037;28;20514;-51
2022/12/19 09:11:05;;;;;;;26.17;16.80;;;-0.80;51.30;;;;;;5011857;28;20566;-50
2022/12/19 09:13:33;;;;;;;32.30;19.00;;;-0.80;52.00;;;;;;5012197;28;20487;-53
2022/12/19 09:16:01;;;;;;;30.53;18.20;;;-0.80;51.40;;;;;;5010967;28;21065;-53
2022/12/19 09:18:28;;;;;;;26.80;17.17;;;-0.80;52.30;;;;;;5012022;28;20451;-52
2022/12/19 09:20:55;;;;;;;26.07;16.97;;;-0.70;49.10;;;;;;5011245;28;20510;-53
2022/12/19 09:23:22;;;;;;;26.87;16.63;;;-0.70;49.30;;;;;;5012702;28;20889;-51
2022/12/19 09:25:50;;;;;;;21.13;15.87;;;-0.60;56.50;;;;;;5012177;28;20503;-52
2022/12/19 09:28:16;;;;;;;31.07;18.13;;;-0.60;54.90;;;;;;5011433;28;20869;-52
2022/12/19 09:30:43;;;;;;;27.73;17.37;;;-0.50;54.90;;;;;;5010587;28;20562;-52
2022/12/19 09:33:09;;;;;;;31.47;17.47;;;-0.50;57.90;;;;;;5011796;28;21029;-51
2022/12/19 09:35:36;;;;;;;32.63;18.07;;;-0.50;55.10;;;;;;5032819;22;20666;-51
2022/12/19 09:38:02;;;;;;;26.50;15.60;;;-0.40;59.60;;;;;;5027035;28;20447;-51
2022/12/19 09:40:42;;;;;;;23.60;15.97;;;-0.40;60.70;;;;;;5031589;28;20449;-51
2022/12/19 09:43:20;;;;;;;26.40;16.70;;;-0.30;59.30;;;;;;5030345;28;21021;-52
2022/12/19 09:45:57;;;;;;;25.43;16.57;;;-0.30;62.20;;;;;;5018179;28;21081;-51
2022/12/19 09:48:24;;;;;;;23.53;14.53;;;-0.30;63.00;;;;;;5011517;28;20478;-51
2022/12/19 09:50:56;;;;;;;28.33;16.00;;;-0.30;63.50;;;;;;5011509;28;20479;-51
2022/12/19 09:53:28;;;;;;;29.67;16.40;;;-0.20;64.00;;;;;;5011398;28;20520;-51
2022/12/19 09:55:59;;;;;;;29.23;16.80;;;-0.10;65.10;;;;;;5011447;28;20487;-51
2022/12/19 09:58:39;;;;;;;25.67;17.40;;;-0.10;66.70;;;;;;5010788;28;20495;-51
2022/12/19 10:01:13;;;;;;;27.43;16.80;;;0.00;69.50;;;;;;5014016;28;20973;-51
2022/12/19 10:03:43;;;;;;;24.87;16.47;;;0.10;70.80;;;;;;4995365;28;20452;-51
2022/12/19 10:06:17;;;;;;;31.70;17.83;;;0.20;70.10;;;;;;5001506;28;21062;-51
2022/12/19 10:08:44;;;;;;;24.27;16.00;;;0.20;74.10;;;;;;5015059;28;20534;-51
2022/12/19 10:11:26;;;;;;;28.50;16.83;;;0.30;74.50;;;;;;5014724;28;20517;-51
2022/12/19 10:14:13;;;;;;;25.87;15.87;;;0.30;74.80;;;;;;5014787;28;20530;-51
2022/12/19 10:16:51;;;;;;;27.90;16.70;;;0.40;73.20;;;;;;5014384;28;20458;-51
2022/12/19 10:19:27;;;;;;;31.03;17.93;;;0.30;74.20;;;;;;5014668;28;20501;-51
2022/12/19 10:22:00;;;;;;;27.73;16.70;;;0.30;73.20;;;;;;5013636;28;20538;-52
2022/12/19 10:24:40;;;;;;;24.83;16.33;;;0.40;71.90;;;;;;5014350;28;20530;-51
2022/12/19 10:27:15;;;;;;;27.10;17.57;;;0.40;72.30;;;;;;5014737;28;20546;-51
2022/12/19 10:29:56;;;;;;;25.10;16.60;;;0.50;72.50;;;;;;5014447;28;20534;-51
2022/12/19 10:32:28;;;;;;;28.20;17.37;;;0.60;77.50;;;;;;5013511;28;20467;-51
2022/12/19 10:34:55;;;;;;;24.77;16.13;;;0.60;77.30;;;;;;5014032;28;20472;-52
2022/12/19 10:37:25;;;;;;;34.17;18.27;;;0.60;75.80;;;;;;5014384;28;20627;-51
2022/12/19 10:40:03;;;;;;;28.33;16.87;;;0.70;77.50;;;;;;5014392;28;20535;-51
2022/12/19 10:42:37;;;;;;;24.30;14.57;;;0.80;82.50;;;;;;5014441;28;20535;-51
2022/12/19 10:45:12;;;;;;;22.70;15.00;;;0.90;84.30;;;;;;5014185;28;20555;-51
2022/12/19 10:47:40;;;;;;;25.43;16.40;;;0.90;81.00;;;;;;5013469;28;20973;-51
2022/12/19 10:50:12;;;;;;;25.70;16.77;;;1.00;80.50;;;;;;5014210;28;20999;-51
2022/12/19 10:52:47;;;;;;;25.90;16.00;;;1.10;82.80;;;;;;5013034;28;20546;-51
2022/12/19 10:55:32;;;;;;;25.37;16.47;;;1.10;86.40;;;;;;5013539;28;20566;-51
2022/12/19 10:58:01;;;;;;;27.43;15.93;;;1.20;80.60;;;;;;5014222;28;20526;-51
2022/12/19 11:00:29;;;;;;;23.63;15.53;;;1.10;83.80;;;;;;5014136;28;20497;-51
2022/12/19 11:03:11;;;;;;;21.87;14.60;;;1.10;82.00;;;;;;5013372;28;20443;-51
2022/12/19 11:05:43;;;;;;;25.37;15.00;;;1.10;83.50;;;;;;5005859;28;20463;-51
2022/12/19 11:08:16;;;;;;;26.20;15.17;;;1.10;82.40;;;;;;5013302;28;20579;-51
2022/12/19 11:10:45;;;;;;;35.93;17.70;;;1.10;82.30;;;;;;5013449;28;20567;-51
2022/12/19 11:13:24;;;;;;;22.73;15.97;;;1.20;77.10;;;;;;5013215;28;20551;-52
2022/12/19 11:15:54;;;;;;;25.63;15.37;;;1.20;72.40;;;;;;5007372;28;20463;-51
2022/12/19 11:18:21;;;;;;;25.53;14.77;;;1.20;68.60;;;;;;5013549;28;20933;-51
2022/12/19 11:20:55;;;;;;;28.60;15.50;;;1.10;65.30;;;;;;5013768;28;20466;-51
2022/12/19 11:23:24;;;;;;;26.17;16.27;;;1.20;62.50;;;;;;5012983;28;20471;-51
2022/12/19 11:25:57;;;;;;;25.60;16.90;;;1.10;58.60;;;;;;5012359;28;21024;-51
2022/12/19 11:28:27;;;;;;;26.87;14.90;;;1.10;57.40;;;;;;5013373;28;20444;-51
2022/12/19 11:31:05;;;;;;;24.80;16.63;;;1.10;49.10;;;;;;5013603;28;20578;-51
2022/12/19 11:33:32;;;;;;;25.13;15.53;;;1.10;43.20;;;;;;5013400;28;20547;-51
2022/12/19 11:36:01;;;;;;;22.47;15.77;;;1.10;39.70;;;;;;5013017;28;20923;-51
2022/12/19 11:38:36;;;;;;;22.80;15.93;;;1.10;33.20;;;;;;5012261;28;20830;-51
2022/12/19 11:41:12;;;;;;;34.63;17.60;;;1.00;23.90;;;;;;5013087;28;20497;-51
2022/12/19 11:43:47;;;;;;;26.00;16.37;;;1.00;99.90;;;;;;5013205;28;20634;-52
2022/12/19 11:46:25;;;;;;;31.77;17.17;;;0.90;99.90;;;;;;5013224;28;20517;-51
2022/12/19 11:48:56;;;;;;;35.67;17.57;;;0.80;99.90;;;;;;5011898;28;20547;-51
2022/12/19 11:51:30;;;;;;;25.53;16.83;;;0.80;99.90;;;;;;5012719;28;20599;-51
2022/12/19 11:54:06;;;;;;;25.23;16.53;;;0.80;99.90;;;;;;5012181;28;20501;-51
2022/12/19 11:56:33;;;;;;;21.07;14.93;;;0.70;99.90;;;;;;5012921;28;20495;-51
2022/12/19 11:59:02;;;;;;;34.70;17.53;;;0.80;99.90;;;;;;5012987;28;20506;-51
2022/12/19 12:01:56;;;;;;;24.47;15.00;;;0.70;99.90;;;;;;5012851;28;20518;-51
2022/12/19 12:04:53;;;;;;;30.60;15.63;;;0.80;99.90;;;;;;5011782;28;20546;-52
2022/12/19 12:07:19;;;;;;;25.23;15.83;;;0.70;99.90;;;;;;5002532;28;20547;-51
2022/12/19 12:09:52;;;;;;;25.43;16.93;;;0.80;99.90;;;;;;5007623;28;20547;-52
2022/12/19 12:12:23;;;;;;;27.40;16.43;;;0.70;99.90;;;;;;5012448;28;20522;-51
2022/12/19 12:15:12;;;;;;;30.20;16.70;;;0.70;99.90;;;;;;5012731;28;20558;-51
2022/12/19 12:17:51;;;;;;;29.93;15.40;;;0.70;99.90;;;;;;4995641;28;20459;-51
2022/12/19 12:20:25;;;;;;;28.23;17.47;;;0.70;98.50;;;;;;5011321;28;20467;-52
2022/12/19 12:23:16;;;;;;;29.47;16.37;;;0.80;92.10;;;;;;5011467;28;20570;-51
2022/12/19 12:25:53;;;;;;;21.93;15.27;;;0.70;86.00;;;;;;5009208;28;20566;-52
2022/12/19 12:28:52;;;;;;;24.67;15.53;;;0.80;76.40;;;;;;5012420;28;20551;-51
2022/12/19 12:31:33;;;;;;;48.53;19.10;;;0.80;64.60;;;;;;5011597;28;20566;-51
2022/12/19 12:34:16;;;;;;;28.83;18.20;;;0.80;53.00;;;;;;5012166;28;20440;-51
2022/12/19 12:36:50;;;;;;;24.57;16.37;;;0.80;30.70;;;;;;5012239;28;20554;-51
2022/12/19 12:39:20;;;;;;;23.87;16.87;;;0.80;77.10;;;;;;5011334;28;20470;-51
2022/12/19 12:42:04;;;;;;;23.67;15.43;;;0.80;99.90;;;;;;5012204;28;20960;-51
2022/12/19 12:44:34;;;;;;;27.60;17.07;;;0.80;99.90;;;;;;5011531;28;20531;-52
2022/12/19 12:47:08;;;;;;;25.90;16.47;;;0.80;99.90;;;;;;5011262;28;20840;-51